createdAt,value
2022-12-05T00:04:58.151Z,100221.47
2022-12-05T00:09:59.856Z,100228.06
2022-12-05T00:15:01.447Z,100219.25
2022-12-05T00:20:03.226Z,100221.34
2022-12-05T00:25:06.592Z,100228.53
2022-12-05T00:30:08.410Z,100231.63
2022-12-05T00:35:09.756Z,100236.50
2022-12-05T00:40:11.210Z,100246.34
2022-12-05T00:45:12.621Z,100247.88
2022-12-05T00:50:13.993Z,100247.31
2022-12-05T00:55:15.465Z,100243.22
2022-12-05T01:00:17.286Z,100255.03
2022-12-05T01:05:18.692Z,100265.69
2022-12-05T01:10:20.074Z,100268.91
2022-12-05T01:15:21.444Z,100280.66
2022-12-05T01:20:22.813Z,100282.06
2022-12-05T01:25:24.157Z,100283.06
2022-12-05T01:30:26.043Z,100283.31
2022-12-05T01:35:27.441Z,100287.69
2022-12-05T01:40:29.269Z,100285.13
2022-12-05T01:45:38.484Z,100286.53
2022-12-05T01:50:40.219Z,100287.22
2022-12-05T01:55:41.823Z,100287.66
2022-12-05T02:00:43.468Z,100285.50
2022-12-05T02:05:48.518Z,100296.59
2022-12-05T02:10:53.749Z,100293.78
2022-12-05T02:16:11.346Z,100299.81
2022-12-05T02:21:45.620Z,100308.50
2022-12-05T02:27:08.430Z,100306.53
2022-12-05T02:32:16.838Z,100310.88
2022-12-05T02:37:30.085Z,100310.47
2022-12-05T02:42:41.617Z,100301.06
2022-12-05T02:47:52.624Z,100302.59
2022-12-05T02:52:58.330Z,100300.75
2022-12-05T02:58:04.762Z,100293.47
2022-12-05T03:03:14.057Z,100291.50
2022-12-05T03:08:21.404Z,100287.03
2022-12-05T03:13:29.407Z,100294.72
2022-12-05T03:18:37.884Z,100300.88
2022-12-05T03:23:46.934Z,100306.22
2022-12-05T03:29:08.000Z,100305.38
2022-12-05T03:34:17.161Z,100305.25
2022-12-05T03:39:23.740Z,100317.03
2022-12-05T03:44:43.684Z,100326.84
2022-12-05T03:49:50.312Z,100334.72
2022-12-05T03:54:55.930Z,100336.41
2022-12-05T04:00:02.205Z,100341.75
2022-12-05T04:05:14.449Z,100339.91
2022-12-05T04:10:22.373Z,100345.25
2022-12-05T04:15:50.527Z,100343.84
2022-12-05T04:21:11.305Z,100344.00
2022-12-05T04:26:29.821Z,100354.53
2022-12-05T04:31:37.657Z,100354.09
2022-12-05T04:36:46.792Z,100357.06
2022-12-05T04:41:55.725Z,100359.16
2022-12-05T04:47:01.159Z,100359.16
2022-12-05T04:52:07.478Z,100368.56
2022-12-05T04:57:27.559Z,100370.53
2022-12-05T05:02:35.041Z,100371.78
2022-12-05T05:07:45.094Z,100374.59
2022-12-05T05:12:46.489Z,100368.28
2022-12-05T05:17:47.851Z,100375.84
2022-12-05T05:22:50.734Z,100383.69
2022-12-05T05:27:54.401Z,100384.09
2022-12-05T05:32:55.748Z,100387.34
2022-12-05T05:37:57.525Z,100385.81
2022-12-05T05:42:58.918Z,100392.41
2022-12-05T05:48:00.339Z,100392.53
2022-12-05T05:53:01.709Z,100404.06
2022-12-05T05:58:03.100Z,100394.09
2022-12-05T06:03:04.656Z,100399.16
2022-12-05T06:08:06.233Z,100394.09
2022-12-05T06:13:07.700Z,100400.28
2022-12-05T06:18:09.037Z,100395.91
2022-12-05T06:23:10.739Z,100404.22
2022-12-05T06:28:12.081Z,100400.28
2022-12-05T06:33:13.650Z,100405.47
2022-12-05T06:38:15.024Z,100417.38
2022-12-05T06:43:16.398Z,100414.56
2022-12-05T06:48:17.736Z,100420.03
2022-12-05T06:53:20.082Z,100419.50
2022-12-05T06:58:21.450Z,100429.72
2022-12-05T07:03:23.463Z,100435.34
2022-12-05T07:08:24.809Z,100435.78
2022-12-05T07:13:26.260Z,100433.09
2022-12-05T07:18:28.011Z,100437.16
2022-12-05T07:23:29.561Z,100443.47
2022-12-05T07:28:30.904Z,100443.19
2022-12-05T07:33:32.338Z,100456.41
2022-12-05T07:38:33.793Z,100461.84
2022-12-05T07:43:35.389Z,100467.91
2022-12-05T07:48:37.081Z,100473.22
2022-12-05T07:53:39.593Z,100470.69
2022-12-05T07:58:40.949Z,100478.25
2022-12-05T08:03:43.050Z,100479.38
2022-12-05T08:08:44.893Z,100490.19
2022-12-05T08:13:46.453Z,100504.94
2022-12-05T08:18:47.951Z,100508.16
2022-12-05T08:23:49.283Z,100498.50
2022-12-05T08:28:52.542Z,100505.94
2022-12-05T08:33:59.043Z,100506.78
2022-12-05T08:39:04.090Z,100513.38
2022-12-05T08:44:06.839Z,100518.56
2022-12-05T08:49:08.660Z,100539.94
2022-12-05T08:54:10.869Z,100537.78
2022-12-05T08:59:12.212Z,100545.50
2022-12-05T09:04:13.594Z,100546.19
2022-12-05T09:09:14.986Z,100550.84
2022-12-05T09:14:16.962Z,100554.34
2022-12-05T09:19:25.703Z,100560.72
2022-12-05T09:24:27.134Z,100562.94
2022-12-05T09:29:31.460Z,100561.53
2022-12-05T09:34:33.166Z,100567.44
2022-12-05T09:39:35.112Z,100567.88
2022-12-05T09:44:55.347Z,100563.94
2022-12-05T09:50:02.417Z,100579.53
2022-12-05T09:55:11.379Z,100567.44
2022-12-05T10:00:13.453Z,100562.09
2022-12-05T10:05:38.979Z,100570.81
2022-12-05T10:11:01.695Z,100565.03
2022-12-05T10:16:10.798Z,100572.91
2022-12-05T10:21:19.878Z,100555.94
2022-12-05T10:26:22.914Z,100570.25
2022-12-05T10:31:30.147Z,100558.16
2022-12-05T10:36:32.040Z,100547.06
2022-12-05T10:41:34.046Z,100554.09
2022-12-05T10:46:35.662Z,100539.34
2022-12-05T10:51:38.359Z,100542.41
2022-12-05T10:56:49.290Z,100546.03
2022-12-05T11:01:57.157Z,100534.72
2022-12-05T11:07:04.500Z,100524.88
2022-12-05T11:12:09.090Z,100538.38
2022-12-05T11:17:23.970Z,100544.00
2022-12-05T11:22:34.002Z,100537.81
2022-12-05T11:27:35.384Z,100540.22
2022-12-05T11:32:36.819Z,100536.28
2022-12-05T11:38:00.272Z,100542.84
2022-12-05T11:43:08.939Z,100552.22
2022-12-05T11:48:33.433Z,100541.22
2022-12-05T11:54:06.080Z,100547.03
2022-12-05T11:59:31.987Z,100553.66
2022-12-05T12:04:54.877Z,100549.59
2022-12-05T12:10:27.563Z,100540.19
2022-12-05T12:15:37.463Z,100542.34
2022-12-05T12:20:52.818Z,100543.72
2022-12-05T12:26:15.886Z,100538.47
2022-12-05T12:31:54.949Z,100540.31
2022-12-05T12:37:07.993Z,100542.31
2022-12-05T12:42:18.179Z,100547.88
2022-12-05T12:47:40.014Z,100550.16
2022-12-05T12:53:13.944Z,100546.38
2022-12-05T12:58:40.400Z,100541.91
2022-12-05T13:04:02.857Z,100545.13
2022-12-05T13:09:35.164Z,100542.88
2022-12-05T13:14:39.200Z,100545.00
2022-12-05T13:19:46.359Z,100539.38
2022-12-05T13:24:50.555Z,100550.34
2022-12-05T13:29:55.717Z,100543.84
2022-12-05T13:35:00.938Z,100550.25
2022-12-05T13:40:22.006Z,100551.50
2022-12-05T13:45:23.556Z,100549.13
2022-12-05T13:50:33.191Z,100556.88
2022-12-05T13:55:38.843Z,100563.16
2022-12-05T14:00:40.365Z,100562.03
2022-12-05T14:05:47.067Z,100563.06
2022-12-05T14:10:51.451Z,100564.91
2022-12-05T14:15:54.638Z,100561.53
2022-12-05T14:21:23.889Z,100563.56
2022-12-05T14:26:59.139Z,100563.53
2022-12-05T14:32:13.098Z,100566.25
2022-12-05T14:37:14.406Z,100576.22
2022-12-05T14:42:24.433Z,100579.78
2022-12-05T14:47:30.037Z,100576.31
2022-12-05T14:52:31.596Z,100577.72
2022-12-05T14:57:43.070Z,100578.00
2022-12-05T15:02:46.896Z,100567.63
2022-12-05T15:07:49.878Z,100577.47
2022-12-05T15:12:56.227Z,100572.28
2022-12-05T15:18:05.522Z,100572.41
2022-12-05T15:23:44.153Z,100577.03
2022-12-05T15:29:20.763Z,100570.81
2022-12-05T15:34:52.234Z,100574.31
2022-12-05T15:40:14.569Z,100574.78
2022-12-05T15:45:23.225Z,100584.00
2022-12-05T15:50:33.656Z,100579.91
2022-12-05T15:55:42.219Z,100579.69
2022-12-05T16:00:46.979Z,100582.44
2022-12-05T16:06:01.366Z,100588.59
2022-12-05T16:11:11.003Z,100589.75
2022-12-05T16:16:19.144Z,100587.06
2022-12-05T16:21:38.547Z,100594.53
2022-12-05T16:26:40.878Z,100597.56
2022-12-05T16:31:43.703Z,100592.88
2022-12-05T16:36:50.468Z,100589.16
2022-12-05T16:41:52.530Z,100594.63
2022-12-05T16:46:57.707Z,100596.44
2022-12-05T16:52:09.446Z,100596.72
2022-12-05T16:57:13.339Z,100590.28
2022-12-05T17:02:18.843Z,100596.72
2022-12-05T17:07:20.288Z,100596.44
2022-12-05T17:12:24.539Z,100602.19
2022-12-05T17:17:25.936Z,100610.69
2022-12-05T17:22:28.152Z,100604.22
2022-12-05T17:27:29.694Z,100601.94
2022-12-05T17:32:31.074Z,100607.28
2022-12-05T17:37:32.434Z,100611.75
2022-12-05T17:42:33.910Z,100605.84
2022-12-05T17:47:35.537Z,100606.53
2022-12-05T17:52:36.881Z,100617.66
2022-12-05T17:57:38.233Z,100617.03
2022-12-05T18:02:39.652Z,100614.75
2022-12-05T18:07:42.753Z,100609.72
2022-12-05T18:12:44.212Z,100614.75
2022-12-05T18:17:45.922Z,100620.94
2022-12-05T18:22:48.620Z,100626.16
2022-12-05T18:27:50.108Z,100619.31
2022-12-05T18:32:51.815Z,100616.84
2022-12-05T18:37:53.160Z,100617.00
2022-12-05T18:42:54.505Z,100620.69
2022-12-05T18:48:09.579Z,100615.25
2022-12-05T18:53:17.478Z,100619.22
2022-12-05T18:58:18.832Z,100616.09
2022-12-05T19:03:20.258Z,100619.16
2022-12-05T19:08:22.463Z,100614.66
2022-12-05T19:13:24.002Z,100617.03
2022-12-05T19:18:25.505Z,100617.50
2022-12-05T19:23:27.113Z,100620.19
2022-12-05T19:28:29.052Z,100613.97
2022-12-05T19:33:36.604Z,100620.59
2022-12-05T19:38:40.395Z,100619.72
2022-12-05T19:43:43.237Z,100622.53
2022-12-05T19:48:45.587Z,100624.97
2022-12-05T19:53:48.431Z,100619.31
2022-12-05T19:58:52.020Z,100622.59
2022-12-05T20:04:00.526Z,100626.97
2022-12-05T20:09:02.236Z,100628.38
2022-12-05T20:14:03.604Z,100633.19
2022-12-05T20:19:05.574Z,100634.28
2022-12-05T20:24:07.718Z,100629.63
2022-12-05T20:29:09.840Z,100624.28
2022-12-05T20:34:13.494Z,100633.59
2022-12-05T20:39:17.075Z,100631.34
2022-12-05T20:44:18.533Z,100629.22
2022-12-05T20:49:19.877Z,100629.22
2022-12-05T20:54:21.369Z,100634.88
2022-12-05T20:59:22.728Z,100631.34
2022-12-05T21:04:24.148Z,100628.53
2022-12-05T21:09:29.981Z,100618.84
2022-12-05T21:14:31.784Z,100629.53
2022-12-05T21:19:33.228Z,100627.25
2022-12-05T21:24:34.719Z,100628.53
2022-12-05T21:29:36.054Z,100631.06
2022-12-05T21:34:37.477Z,100626.25
2022-12-05T21:39:38.817Z,100628.38
2022-12-05T21:44:40.443Z,100629.09
2022-12-05T21:49:41.842Z,100627.25
2022-12-05T21:54:43.165Z,100634.88
2022-12-05T21:59:44.505Z,100632.91
2022-12-05T22:04:46.229Z,100630.38
2022-12-05T22:09:47.563Z,100628.38
2022-12-05T22:14:49.124Z,100629.53
2022-12-05T22:19:50.546Z,100628.13
2022-12-05T22:24:51.895Z,100627.00
2022-12-05T22:29:53.231Z,100617.00
2022-12-05T22:34:56.956Z,100624.44
2022-12-05T22:40:02.326Z,100614.66
2022-12-05T22:45:04.369Z,100612.94
2022-12-05T22:50:06.329Z,100618.00
2022-12-05T22:55:08.289Z,100615.50
2022-12-05T23:00:10.107Z,100610.00
2022-12-05T23:05:11.473Z,100610.41
2022-12-05T23:10:12.917Z,100602.22
2022-12-05T23:15:14.360Z,100601.06
2022-12-05T23:20:16.161Z,100606.03
2022-12-05T23:25:17.546Z,100600.66
2022-12-05T23:30:19.046Z,100603.81
2022-12-05T23:35:20.429Z,100593.84
2022-12-05T23:40:21.880Z,100593.56
2022-12-05T23:45:23.333Z,100601.81
2022-12-05T23:50:24.717Z,100604.19
2022-12-05T23:55:26.109Z,100599.34
